sensor_id;sensor_type;location;lat;lon;timestamp;pressure;altitude;pressure_sealevel;temperature;humidity
54308;BME280;40208;39.778;2.710;2022-09-13T00:01:17;100939.69;;;28.17;100.00
54308;BME280;40208;39.778;2.710;2022-09-13T00:04:02;100950.75;;;28.24;100.00
54308;BME280;40208;39.778;2.710;2022-09-13T00:06:48;100953.81;;;28.21;100.00
54308;BME280;40208;39.778;2.710;2022-09-13T00:09:32;100955.69;;;28.20;100.00
54308;BME280;40208;39.778;2.710;2022-09-13T00:12:17;100950.94;;;28.14;100.00
54308;BME280;40208;39.778;2.710;2022-09-13T00:15:02;100946.72;;;28.11;100.00
54308;BME280;40208;39.778;2.710;2022-09-13T00:17:47;100947.25;;;28.07;100.00
54308;BME280;40208;39.778;2.710;2022-09-13T00:20:32;100941.69;;;28.00;100.00
54308;BME280;40208;39.778;2.710;2022-09-13T00:23:16;100937.22;;;27.99;100.00
54308;BME280;40208;39.778;2.710;2022-09-13T00:26:10;100931.84;;;27.91;100.00
54308;BME280;40208;39.778;2.710;2022-09-13T00:28:57;100810.69;;;27.06;100.00
54308;BME280;40208;39.778;2.710;2022-09-13T00:31:42;100932.72;;;27.75;100.00
54308;BME280;40208;39.778;2.710;2022-09-13T00:34:27;100911.44;;;27.70;100.00
54308;BME280;40208;39.778;2.710;2022-09-13T00:37:12;100917.28;;;27.67;100.00
54308;BME280;40208;39.778;2.710;2022-09-13T00:39:57;100922.25;;;27.56;100.00
54308;BME280;40208;39.778;2.710;2022-09-13T00:42:41;100916.66;;;27.49;100.00
54308;BME280;40208;39.778;2.710;2022-09-13T00:45:26;100921.97;;;27.42;100.00
54308;BME280;40208;39.778;2.710;2022-09-13T00:48:21;100874.84;;;27.17;100.00
54308;BME280;40208;39.778;2.710;2022-09-13T00:51:08;100898.22;;;27.20;100.00
54308;BME280;40208;39.778;2.710;2022-09-13T00:53:55;100873.03;;;27.01;100.00
54308;BME280;40208;39.778;2.710;2022-09-13T00:56:46;100924.25;;;27.22;100.00
54308;BME280;40208;39.778;2.710;2022-09-13T00:59:41;100924.06;;;27.16;100.00
54308;BME280;40208;39.778;2.710;2022-09-13T01:02:29;100922.03;;;27.10;100.00
54308;BME280;40208;39.778;2.710;2022-09-13T01:05:17;100924.44;;;27.04;100.00
54308;BME280;40208;39.778;2.710;2022-09-13T01:08:05;100923.59;;;27.04;100.00
54308;BME280;40208;39.778;2.710;2022-09-13T01:10:57;100936.03;;;26.98;100.00
54308;BME280;40208;39.778;2.710;2022-09-13T01:13:44;100919.16;;;26.95;100.00
54308;BME280;40208;39.778;2.710;2022-09-13T01:16:29;100918.31;;;26.86;100.00
54308;BME280;40208;39.778;2.710;2022-09-13T01:19:14;100788.41;;;26.06;100.00
54308;BME280;40208;39.778;2.710;2022-09-13T01:25:16;100904.41;;;26.73;100.00
54308;BME280;40208;39.778;2.710;2022-09-13T01:40:37;100885.00;;;26.51;100.00
54308;BME280;40208;39.778;2.710;2022-09-13T01:50:00;100900.13;;;26.37;100.00
54308;BME280;40208;39.778;2.710;2022-09-13T01:52:54;100899.94;;;26.31;100.00
54308;BME280;40208;39.778;2.710;2022-09-13T01:55:51;100882.94;;;26.20;100.00
54308;BME280;40208;39.778;2.710;2022-09-13T01:58:43;100892.47;;;26.25;100.00
54308;BME280;40208;39.778;2.710;2022-09-13T02:01:33;100888.88;;;26.24;100.00
54308;BME280;40208;39.778;2.710;2022-09-13T02:04:23;100879.53;;;26.18;100.00
54308;BME280;40208;39.778;2.710;2022-09-13T02:07:10;100869.31;;;26.12;100.00
54308;BME280;40208;39.778;2.710;2022-09-13T02:10:20;100856.06;;;26.09;100.00
54308;BME280;40208;39.778;2.710;2022-09-13T02:13:12;100837.53;;;26.05;100.00
54308;BME280;40208;39.778;2.710;2022-09-13T02:16:02;100811.53;;;26.02;100.00
54308;BME280;40208;39.778;2.710;2022-09-13T02:18:54;100803.19;;;25.95;100.00
54308;BME280;40208;39.778;2.710;2022-09-13T02:21:44;100794.81;;;25.80;100.00
54308;BME280;40208;39.778;2.710;2022-09-13T02:24:33;100802.63;;;25.84;100.00
54308;BME280;40208;39.778;2.710;2022-09-13T02:27:22;100796.72;;;25.88;100.00
54308;BME280;40208;39.778;2.710;2022-09-13T02:30:10;100802.63;;;25.84;100.00
54308;BME280;40208;39.778;2.710;2022-09-13T02:32:59;100697.19;;;25.12;100.00
54308;BME280;40208;39.778;2.710;2022-09-13T02:35:52;100664.84;;;24.84;100.00
54308;BME280;40208;39.778;2.710;2022-09-13T02:38:43;100827.09;;;25.75;100.00
54308;BME280;40208;39.778;2.710;2022-09-13T02:42:00;100827.06;;;25.67;100.00
54308;BME280;40208;39.778;2.710;2022-09-13T02:44:53;100709.66;;;24.88;100.00
54308;BME280;40208;39.778;2.710;2022-09-13T02:51:15;100852.03;;;25.63;100.00
54308;BME280;40208;39.778;2.710;2022-09-13T02:54:13;100821.25;;;25.46;100.00
54308;BME280;40208;39.778;2.710;2022-09-13T02:57:13;100834.53;;;25.57;100.00
54308;BME280;40208;39.778;2.710;2022-09-13T02:59:58;100817.19;;;25.50;100.00
54308;BME280;40208;39.778;2.710;2022-09-13T03:02:45;100776.03;;;25.20;100.00
54308;BME280;40208;39.778;2.710;2022-09-13T03:05:32;100813.78;;;25.39;100.00
54308;BME280;40208;39.778;2.710;2022-09-13T03:08:17;100827.34;;;25.39;100.00
54308;BME280;40208;39.778;2.710;2022-09-13T03:11:28;100798.13;;;25.33;100.00
54308;BME280;40208;39.778;2.710;2022-09-13T03:17:50;100799.19;;;25.57;100.00
54308;BME280;40208;39.778;2.710;2022-09-13T03:20:48;100782.72;;;25.58;100.00
54308;BME280;40208;39.778;2.710;2022-09-13T03:29:49;100759.28;;;25.49;100.00
54308;BME280;40208;39.778;2.710;2022-09-13T03:32:58;100763.38;;;25.53;100.00
54308;BME280;40208;39.778;2.710;2022-09-13T03:38:40;100760.13;;;25.42;100.00
54308;BME280;40208;39.778;2.710;2022-09-13T03:41:35;100755.34;;;25.27;100.00
54308;BME280;40208;39.778;2.710;2022-09-13T03:44:21;100655.66;;;24.61;100.00
54308;BME280;40208;39.778;2.710;2022-09-13T03:47:08;100743.59;;;25.18;100.00
54308;BME280;40208;39.778;2.710;2022-09-13T03:49:53;100732.56;;;25.20;100.00
54308;BME280;40208;39.778;2.710;2022-09-13T03:52:39;100742.41;;;25.21;100.00
54308;BME280;40208;39.778;2.710;2022-09-13T03:55:25;100738.06;;;25.10;100.00
54308;BME280;40208;39.778;2.710;2022-09-13T03:58:15;100722.41;;;24.96;100.00
54308;BME280;40208;39.778;2.710;2022-09-13T04:01:00;100743.34;;;25.12;100.00
54308;BME280;40208;39.778;2.710;2022-09-13T04:03:44;100748.44;;;25.07;100.00
54308;BME280;40208;39.778;2.710;2022-09-13T04:06:29;100741.81;;;25.09;100.00
54308;BME280;40208;39.778;2.710;2022-09-13T04:09:14;100739.09;;;25.09;100.00
54308;BME280;40208;39.778;2.710;2022-09-13T04:11:59;100739.16;;;25.17;100.00
54308;BME280;40208;39.778;2.710;2022-09-13T04:14:44;100742.75;;;25.26;100.00
54308;BME280;40208;39.778;2.710;2022-09-13T04:17:28;100739.88;;;25.28;100.00
54308;BME280;40208;39.778;2.710;2022-09-13T04:20:13;100742.25;;;25.31;100.00
54308;BME280;40208;39.778;2.710;2022-09-13T04:22:58;100742.94;;;25.33;100.00
54308;BME280;40208;39.778;2.710;2022-09-13T04:25:43;100740.91;;;25.35;100.00
54308;BME280;40208;39.778;2.710;2022-09-13T04:28:28;100741.41;;;25.38;100.00
54308;BME280;40208;39.778;2.710;2022-09-13T04:31:12;100737.66;;;25.31;100.00
54308;BME280;40208;39.778;2.710;2022-09-13T04:33:57;100733.59;;;25.35;100.00
54308;BME280;40208;39.778;2.710;2022-09-13T04:36:44;100729.34;;;25.41;100.00
54308;BME280;40208;39.778;2.710;2022-09-13T04:39:29;100742.63;;;25.44;100.00
54308;BME280;40208;39.778;2.710;2022-09-13T04:42:14;100738.38;;;25.42;100.00
54308;BME280;40208;39.778;2.710;2022-09-13T04:44:59;100659.63;;;24.83;100.00
54308;BME280;40208;39.778;2.710;2022-09-13T04:47:50;100747.72;;;25.39;100.00
54308;BME280;40208;39.778;2.710;2022-09-13T04:50:35;100745.50;;;25.43;100.00
54308;BME280;40208;39.778;2.710;2022-09-13T04:53:19;100743.44;;;25.36;100.00
54308;BME280;40208;39.778;2.710;2022-09-13T04:56:05;100740.72;;;25.36;100.00
54308;BME280;40208;39.778;2.710;2022-09-13T04:58:50;100744.47;;;25.44;100.00
54308;BME280;40208;39.778;2.710;2022-09-13T05:01:35;100741.59;;;25.45;100.00
54308;BME280;40208;39.778;2.710;2022-09-13T05:04:20;100761.50;;;25.54;100.00
54308;BME280;40208;39.778;2.710;2022-09-13T05:07:05;100759.63;;;25.63;100.00
54308;BME280;40208;39.778;2.710;2022-09-13T05:09:50;100770.66;;;25.69;100.00
54308;BME280;40208;39.778;2.710;2022-09-13T05:12:35;100767.44;;;25.74;100.00
54308;BME280;40208;39.778;2.710;2022-09-13T05:15:20;100770.00;;;25.75;100.00
54308;BME280;40208;39.778;2.710;2022-09-13T05:18:04;100779.88;;;25.85;100.00
54308;BME280;40208;39.778;2.710;2022-09-13T05:20:53;100776.69;;;25.89;100.00
54308;BME280;40208;39.778;2.710;2022-09-13T05:23:39;100776.19;;;25.94;100.00
54308;BME280;40208;39.778;2.710;2022-09-13T05:26:26;100768.50;;;25.97;100.00
54308;BME280;40208;39.778;2.710;2022-09-13T05:29:12;100796.56;;;25.98;100.00
54308;BME280;40208;39.778;2.710;2022-09-13T05:31:57;100820.88;;;25.99;100.00
54308;BME280;40208;39.778;2.710;2022-09-13T05:34:42;100827.69;;;26.04;100.00
54308;BME280;40208;39.778;2.710;2022-09-13T05:37:27;100835.66;;;26.05;100.00
54308;BME280;40208;39.778;2.710;2022-09-13T05:40:12;100816.97;;;26.10;100.00
54308;BME280;40208;39.778;2.710;2022-09-13T05:42:57;100807.63;;;26.13;100.00
54308;BME280;40208;39.778;2.710;2022-09-13T05:45:41;100834.16;;;26.11;100.00
54308;BME280;40208;39.778;2.710;2022-09-13T05:48:26;100844.19;;;26.10;100.00
54308;BME280;40208;39.778;2.710;2022-09-13T05:51:21;100821.88;;;26.15;100.00
54308;BME280;40208;39.778;2.710;2022-09-13T05:54:06;100828.72;;;26.27;100.00
54308;BME280;40208;39.778;2.710;2022-09-13T05:56:50;100827.84;;;26.27;100.00
54308;BME280;40208;39.778;2.710;2022-09-13T05:59:37;100833.13;;;26.28;100.00
54308;BME280;40208;39.778;2.710;2022-09-13T06:02:22;100833.13;;;26.28;100.00
54308;BME280;40208;39.778;2.710;2022-09-13T06:05:08;100844.00;;;26.28;100.00
54308;BME280;40208;39.778;2.710;2022-09-13T06:07:54;100826.84;;;26.28;100.00
54308;BME280;40208;39.778;2.710;2022-09-13T06:10:39;100830.22;;;26.30;100.00
54308;BME280;40208;39.778;2.710;2022-09-13T06:13:24;100816.94;;;26.27;100.00
54308;BME280;40208;39.778;2.710;2022-09-13T06:16:12;100832.63;;;26.25;100.00
54308;BME280;40208;39.778;2.710;2022-09-13T06:18:57;100841.81;;;26.32;100.00
54308;BME280;40208;39.778;2.710;2022-09-13T06:21:42;100840.41;;;26.36;100.00
54308;BME280;40208;39.778;2.710;2022-09-13T06:24:27;100854.53;;;26.39;100.00
54308;BME280;40208;39.778;2.710;2022-09-13T06:27:12;100854.72;;;26.38;100.00
54308;BME280;40208;39.778;2.710;2022-09-13T06:29:57;100837.38;;;26.39;100.00
54308;BME280;40208;39.778;2.710;2022-09-13T06:32:42;100849.28;;;26.46;100.00
54308;BME280;40208;39.778;2.710;2022-09-13T06:35:27;100727.88;;;25.79;100.00
54308;BME280;40208;39.778;2.710;2022-09-13T06:38:11;100856.59;;;26.54;100.00
54308;BME280;40208;39.778;2.710;2022-09-13T06:41:04;100844.84;;;26.53;100.00
54308;BME280;40208;39.778;2.710;2022-09-13T06:43:54;100839.41;;;26.53;100.00
54308;BME280;40208;39.778;2.710;2022-09-13T06:46:40;100840.75;;;26.57;100.00
54308;BME280;40208;39.778;2.710;2022-09-13T06:49:25;100834.13;;;26.60;100.00
54308;BME280;40208;39.778;2.710;2022-09-13T06:52:12;100828.50;;;26.61;100.00
54308;BME280;40208;39.778;2.710;2022-09-13T06:54:57;100839.06;;;26.64;100.00
54308;BME280;40208;39.778;2.710;2022-09-13T06:57:42;100837.84;;;26.67;100.00
54308;BME280;40208;39.778;2.710;2022-09-13T07:00:26;100830.72;;;26.66;100.00
54308;BME280;40208;39.778;2.710;2022-09-13T07:03:11;100811.31;;;26.69;100.00
54308;BME280;40208;39.778;2.710;2022-09-13T07:05:56;100826.13;;;26.75;100.00
54308;BME280;40208;39.778;2.710;2022-09-13T07:08:42;100845.84;;;26.69;100.00
54308;BME280;40208;39.778;2.710;2022-09-13T07:11:34;100840.06;;;26.72;100.00
54308;BME280;40208;39.778;2.710;2022-09-13T07:14:21;100826.97;;;26.75;100.00
54308;BME280;40208;39.778;2.710;2022-09-13T07:17:06;100831.16;;;26.86;100.00
54308;BME280;40208;39.778;2.710;2022-09-13T07:19:51;100839.00;;;26.89;100.00
54308;BME280;40208;39.778;2.710;2022-09-13T07:22:35;100844.94;;;26.93;100.00
54308;BME280;40208;39.778;2.710;2022-09-13T07:25:20;100854.31;;;26.98;100.00
54308;BME280;40208;39.778;2.710;2022-09-13T07:28:05;100847.81;;;26.99;100.00
54308;BME280;40208;39.778;2.710;2022-09-13T07:30:50;100859.72;;;27.06;100.00
54308;BME280;40208;39.778;2.710;2022-09-13T07:33:36;100860.56;;;27.07;100.00
54308;BME280;40208;39.778;2.710;2022-09-13T07:36:21;100880.47;;;27.24;100.00
54308;BME280;40208;39.778;2.710;2022-09-13T07:39:07;100876.84;;;27.40;100.00
54308;BME280;40208;39.778;2.710;2022-09-13T07:41:52;100893.69;;;27.43;100.00
54308;BME280;40208;39.778;2.710;2022-09-13T07:44:39;100893.34;;;27.38;100.00
54308;BME280;40208;39.778;2.710;2022-09-13T07:47:24;100897.75;;;27.47;100.00
54308;BME280;40208;39.778;2.710;2022-09-13T07:50:09;100903.19;;;27.56;100.00
54308;BME280;40208;39.778;2.710;2022-09-13T07:52:54;100904.19;;;27.55;100.00
54308;BME280;40208;39.778;2.710;2022-09-13T07:55:38;100907.59;;;27.57;100.00
54308;BME280;40208;39.778;2.710;2022-09-13T07:58:23;100914.03;;;27.64;100.00
54308;BME280;40208;39.778;2.710;2022-09-13T08:01:17;100914.34;;;27.69;100.00
54308;BME280;40208;39.778;2.710;2022-09-13T08:04:14;100793.72;;;26.96;100.00
54308;BME280;40208;39.778;2.710;2022-09-13T08:07:01;100919.47;;;27.64;100.00
54308;BME280;40208;39.778;2.710;2022-09-13T08:09:46;100922.06;;;27.57;100.00
54308;BME280;40208;39.778;2.710;2022-09-13T08:12:31;100945.69;;;27.73;100.00
54308;BME280;40208;39.778;2.710;2022-09-13T08:15:16;100930.75;;;27.61;100.00
54308;BME280;40208;39.778;2.710;2022-09-13T08:18:01;100937.72;;;27.63;100.00
54308;BME280;40208;39.778;2.710;2022-09-13T08:20:46;100934.78;;;27.73;100.00
54308;BME280;40208;39.778;2.710;2022-09-13T08:23:31;100946.50;;;27.90;100.00
54308;BME280;40208;39.778;2.710;2022-09-13T08:26:17;100934.38;;;27.92;100.00
54308;BME280;40208;39.778;2.710;2022-09-13T08:29:04;100924.69;;;27.82;100.00
54308;BME280;40208;39.778;2.710;2022-09-13T08:31:49;100935.94;;;27.87;100.00
54308;BME280;40208;39.778;2.710;2022-09-13T08:34:34;100920.94;;;27.91;100.00
54308;BME280;40208;39.778;2.710;2022-09-13T08:37:19;100890.69;;;28.01;100.00
54308;BME280;40208;39.778;2.710;2022-09-13T08:40:04;100895.59;;;28.05;100.00
54308;BME280;40208;39.778;2.710;2022-09-13T08:46:32;100832.72;;;27.99;100.00
54308;BME280;40208;39.778;2.710;2022-09-13T08:49:25;100852.53;;;28.16;100.00
54308;BME280;40208;39.778;2.710;2022-09-13T08:55:02;100843.50;;;28.15;100.00
54308;BME280;40208;39.778;2.710;2022-09-13T08:57:56;100821.28;;;28.18;100.00
54308;BME280;40208;39.778;2.710;2022-09-13T09:00:53;100797.91;;;28.24;100.00
54308;BME280;40208;39.778;2.710;2022-09-13T09:06:27;100800.38;;;28.33;100.00
54308;BME280;40208;39.778;2.710;2022-09-13T09:09:15;100791.69;;;28.30;100.00
54308;BME280;40208;39.778;2.710;2022-09-13T09:15:13;100778.59;;;28.40;100.00
54308;BME280;40208;39.778;2.710;2022-09-13T09:18:12;100771.94;;;28.43;100.00
54308;BME280;40208;39.778;2.710;2022-09-13T09:21:00;100757.97;;;28.38;100.00
54308;BME280;40208;39.778;2.710;2022-09-13T09:23:50;100750.00;;;28.36;100.00
54308;BME280;40208;39.778;2.710;2022-09-13T09:26:36;100723.94;;;28.33;100.00
54308;BME280;40208;39.778;2.710;2022-09-13T09:29:26;100724.88;;;28.41;100.00
54308;BME280;40208;39.778;2.710;2022-09-13T09:35:45;100715.47;;;28.43;100.00
54308;BME280;40208;39.778;2.710;2022-09-13T09:38:38;100710.47;;;28.47;100.00
54308;BME280;40208;39.778;2.710;2022-09-13T09:44:18;100711.53;;;28.46;100.00
54308;BME280;40208;39.778;2.710;2022-09-13T09:47:19;100704.31;;;28.45;100.00
54308;BME280;40208;39.778;2.710;2022-09-13T09:50:17;100660.28;;;28.18;100.00
54308;BME280;40208;39.778;2.710;2022-09-13T09:53:11;100693.94;;;28.48;100.00
54308;BME280;40208;39.778;2.710;2022-09-13T09:56:21;100697.19;;;28.44;100.00
54308;BME280;40208;39.778;2.710;2022-09-13T09:59:24;100723.66;;;28.43;100.00
54308;BME280;40208;39.778;2.710;2022-09-13T10:02:18;100702.16;;;28.25;100.00
54308;BME280;40208;39.778;2.710;2022-09-13T10:05:04;100745.63;;;28.65;100.00
54308;BME280;40208;39.778;2.710;2022-09-13T10:07:57;100742.88;;;28.65;100.00
54308;BME280;40208;39.778;2.710;2022-09-13T10:10:43;100741.84;;;28.66;100.00
54308;BME280;40208;39.778;2.710;2022-09-13T10:13:36;100651.81;;;28.13;100.00
54308;BME280;40208;39.778;2.710;2022-09-13T10:16:27;100743.72;;;28.65;100.00
54308;BME280;40208;39.778;2.710;2022-09-13T10:19:23;100772.19;;;28.86;100.00
54308;BME280;40208;39.778;2.710;2022-09-13T10:22:12;100744.66;;;28.72;100.00
54308;BME280;40208;39.778;2.710;2022-09-13T10:27:59;100680.44;;;28.47;100.00
54308;BME280;40208;39.778;2.710;2022-09-13T10:30:57;100779.13;;;29.03;100.00
54308;BME280;40208;39.778;2.710;2022-09-13T10:36:35;100773.88;;;29.16;100.00
54308;BME280;40208;39.778;2.710;2022-09-13T10:39:22;100781.94;;;29.25;100.00
54308;BME280;40208;39.778;2.710;2022-09-13T10:42:09;100772.19;;;29.37;100.00
54308;BME280;40208;39.778;2.710;2022-09-13T10:45:04;100722.19;;;29.22;100.00
54308;BME280;40208;39.778;2.710;2022-09-13T10:47:53;100755.16;;;29.56;100.00
54308;BME280;40208;39.778;2.710;2022-09-13T10:50:39;100759.75;;;29.71;100.00
54308;BME280;40208;39.778;2.710;2022-09-13T10:53:34;100764.50;;;29.84;100.00
54308;BME280;40208;39.778;2.710;2022-09-13T10:56:23;100757.47;;;29.96;100.00
54308;BME280;40208;39.778;2.710;2022-09-13T10:59:26;100750.81;;;30.05;100.00
54308;BME280;40208;39.778;2.710;2022-09-13T11:05:27;100766.47;;;30.18;100.00
54308;BME280;40208;39.778;2.710;2022-09-13T11:18:12;100777.94;;;30.50;100.00
54308;BME280;40208;39.778;2.710;2022-09-13T11:21:02;100783.03;;;30.59;100.00
54308;BME280;40208;39.778;2.710;2022-09-13T11:27:21;100823.38;;;30.72;100.00
54308;BME280;40208;39.778;2.710;2022-09-13T11:30:17;100838.97;;;30.72;100.00
54308;BME280;40208;39.778;2.710;2022-09-13T11:39:21;100859.69;;;30.81;100.00
54308;BME280;40208;39.778;2.710;2022-09-13T11:45:26;100876.22;;;30.88;100.00
54308;BME280;40208;39.778;2.710;2022-09-13T11:48:34;100896.91;;;30.90;100.00
54308;BME280;40208;39.778;2.710;2022-09-13T11:57:32;100931.94;;;30.95;100.00
54308;BME280;40208;39.778;2.710;2022-09-13T12:00:28;100949.66;;;30.99;100.00
54308;BME280;40208;39.778;2.710;2022-09-13T12:06:25;100969.50;;;31.01;100.00
54308;BME280;40208;39.778;2.710;2022-09-13T12:09:24;100976.22;;;30.98;100.00
54308;BME280;40208;39.778;2.710;2022-09-13T12:12:11;100990.16;;;30.97;100.00
54308;BME280;40208;39.778;2.710;2022-09-13T12:15:05;100996.72;;;31.02;100.00
54308;BME280;40208;39.778;2.710;2022-09-13T12:18:03;100999.41;;;30.96;100.00
54308;BME280;40208;39.778;2.710;2022-09-13T12:21:05;101012.84;;;30.91;100.00
54308;BME280;40208;39.778;2.710;2022-09-13T12:24:02;101016.66;;;30.90;100.00
54308;BME280;40208;39.778;2.710;2022-09-13T12:27:08;101020.81;;;30.85;100.00
54308;BME280;40208;39.778;2.710;2022-09-13T12:30:01;101034.44;;;30.79;100.00
54308;BME280;40208;39.778;2.710;2022-09-13T12:32:49;101050.69;;;30.80;100.00
54308;BME280;40208;39.778;2.710;2022-09-13T12:36:09;101064.38;;;30.80;100.00
54308;BME280;40208;39.778;2.710;2022-09-13T12:57:53;101036.09;;;30.22;100.00
54308;BME280;40208;39.778;2.710;2022-09-13T13:01:03;101005.81;;;30.23;100.00
54308;BME280;40208;39.778;2.710;2022-09-13T13:07:15;100998.47;;;30.09;100.00
54308;BME280;40208;39.778;2.710;2022-09-13T13:10:03;100970.19;;;30.02;100.00
54308;BME280;40208;39.778;2.710;2022-09-13T13:12:48;100948.66;;;29.99;100.00
54308;BME280;40208;39.778;2.710;2022-09-13T13:18:42;100833.97;;;29.31;100.00
54308;BME280;40208;39.778;2.710;2022-09-13T13:27:35;100936.47;;;30.01;100.00
54308;BME280;40208;39.778;2.710;2022-09-13T13:30:53;100930.06;;;29.94;100.00
54308;BME280;40208;39.778;2.710;2022-09-13T13:40:30;100922.34;;;30.19;100.00
54308;BME280;40208;39.778;2.710;2022-09-13T13:43:28;100909.06;;;30.16;100.00
54308;BME280;40208;39.778;2.710;2022-09-13T13:55:37;100909.03;;;30.31;100.00
54308;BME280;40208;39.778;2.710;2022-09-13T13:58:44;100905.63;;;30.29;100.00
54308;BME280;40208;39.778;2.710;2022-09-13T14:01:32;100899.75;;;30.32;100.00
54308;BME280;40208;39.778;2.710;2022-09-13T14:14:43;100866.44;;;30.29;100.00
54308;BME280;40208;39.778;2.710;2022-09-13T14:18:16;100856.63;;;30.19;100.00
54308;BME280;40208;39.778;2.710;2022-09-13T14:21:02;100860.38;;;30.12;100.00
54308;BME280;40208;39.778;2.710;2022-09-13T14:23:47;100768.13;;;29.48;100.00
54308;BME280;40208;39.778;2.710;2022-09-13T14:26:31;100856.50;;;30.06;100.00
54308;BME280;40208;39.778;2.710;2022-09-13T14:29:19;100870.66;;;30.10;100.00
54308;BME280;40208;39.778;2.710;2022-09-13T14:32:05;100873.41;;;30.10;100.00
54308;BME280;40208;39.778;2.710;2022-09-13T14:35:00;100894.38;;;30.02;100.00
54308;BME280;40208;39.778;2.710;2022-09-13T14:37:45;100904.66;;;30.00;100.00
54308;BME280;40208;39.778;2.710;2022-09-13T14:40:30;100900.25;;;29.99;100.00
54308;BME280;40208;39.778;2.710;2022-09-13T14:43:18;100901.09;;;30.00;100.00
54308;BME280;40208;39.778;2.710;2022-09-13T14:46:09;100917.50;;;30.00;100.00
54308;BME280;40208;39.778;2.710;2022-09-13T14:49:08;100937.69;;;29.99;100.00
54308;BME280;40208;39.778;2.710;2022-09-13T14:52:05;100936.00;;;29.98;100.00
54308;BME280;40208;39.778;2.710;2022-09-13T14:54:55;100849.03;;;29.42;100.00
54308;BME280;40208;39.778;2.710;2022-09-13T14:57:46;100872.31;;;29.53;100.00
54308;BME280;40208;39.778;2.710;2022-09-13T15:00:45;100928.38;;;29.93;100.00
54308;BME280;40208;39.778;2.710;2022-09-13T15:03:32;100863.00;;;29.47;100.00
54308;BME280;40208;39.778;2.710;2022-09-13T15:06:23;100880.69;;;29.51;100.00
54308;BME280;40208;39.778;2.710;2022-09-13T15:11:56;100956.16;;;29.90;100.00
54308;BME280;40208;39.778;2.710;2022-09-13T15:14:41;100961.13;;;29.87;100.00
54308;BME280;40208;39.778;2.710;2022-09-13T15:17:27;100843.88;;;29.17;100.00
54308;BME280;40208;39.778;2.710;2022-09-13T15:20:12;100947.34;;;29.95;100.00
54308;BME280;40208;39.778;2.710;2022-09-13T15:22:57;100831.16;;;29.25;100.00
54308;BME280;40208;39.778;2.710;2022-09-13T15:25:50;100938.59;;;29.85;100.00
54308;BME280;40208;39.778;2.710;2022-09-13T15:31:33;100929.53;;;29.84;100.00
54308;BME280;40208;39.778;2.710;2022-09-13T15:34:21;100918.13;;;29.80;100.00
54308;BME280;40208;39.778;2.710;2022-09-13T15:37:09;100910.50;;;29.76;100.00
54308;BME280;40208;39.778;2.710;2022-09-13T15:40:11;100908.41;;;29.78;100.00
54308;BME280;40208;39.778;2.710;2022-09-13T15:42:56;100870.41;;;29.68;100.00
54308;BME280;40208;39.778;2.710;2022-09-13T15:45:41;100879.09;;;29.72;100.00
54308;BME280;40208;39.778;2.710;2022-09-13T15:48:32;100877.00;;;29.74;100.00
54308;BME280;40208;39.778;2.710;2022-09-13T15:51:17;100875.97;;;29.75;100.00
54308;BME280;40208;39.778;2.710;2022-09-13T15:54:04;100868.34;;;29.70;100.00
54308;BME280;40208;39.778;2.710;2022-09-13T15:56:49;100863.81;;;29.63;100.00
54308;BME280;40208;39.778;2.710;2022-09-13T15:59:35;100860.66;;;29.66;100.00
54308;BME280;40208;39.778;2.710;2022-09-13T16:02:24;100852.47;;;29.66;100.00
54308;BME280;40208;39.778;2.710;2022-09-13T16:05:09;100856.25;;;29.65;100.00
54308;BME280;40208;39.778;2.710;2022-09-13T16:07:55;100844.22;;;29.59;100.00
54308;BME280;40208;39.778;2.710;2022-09-13T16:10:42;100811.88;;;29.48;100.00
54308;BME280;40208;39.778;2.710;2022-09-13T16:13:27;100801.91;;;29.40;100.00
54308;BME280;40208;39.778;2.710;2022-09-13T16:16:14;100710.75;;;28.82;100.00
54308;BME280;40208;39.778;2.710;2022-09-13T16:18:59;100822.25;;;29.52;100.00
54308;BME280;40208;39.778;2.710;2022-09-13T16:21:44;100826.84;;;29.52;100.00
54308;BME280;40208;39.778;2.710;2022-09-13T16:24:28;100814.88;;;29.53;100.00
54308;BME280;40208;39.778;2.710;2022-09-13T16:27:16;100807.25;;;29.48;100.00
54308;BME280;40208;39.778;2.710;2022-09-13T16:30:01;100794.91;;;29.37;100.00
54308;BME280;40208;39.778;2.710;2022-09-13T16:32:45;100812.53;;;29.50;100.00
54308;BME280;40208;39.778;2.710;2022-09-13T16:35:30;100822.44;;;29.51;100.00
54308;BME280;40208;39.778;2.710;2022-09-13T16:38:16;100804.13;;;29.51;100.00
54308;BME280;40208;39.778;2.710;2022-09-13T16:41:05;100792.16;;;29.52;100.00
54308;BME280;40208;39.778;2.710;2022-09-13T16:43:50;100793.00;;;29.53;100.00
54308;BME280;40208;39.778;2.710;2022-09-13T16:46:35;100698.69;;;28.91;100.00
54308;BME280;40208;39.778;2.710;2022-09-13T16:49:20;100794.91;;;29.52;100.00
54308;BME280;40208;39.778;2.710;2022-09-13T16:52:05;100802.03;;;29.53;100.00
54308;BME280;40208;39.778;2.710;2022-09-13T16:54:50;100809.22;;;29.54;100.00
54308;BME280;40208;39.778;2.710;2022-09-13T16:57:36;100775.59;;;29.39;100.00
54308;BME280;40208;39.778;2.710;2022-09-13T17:00:21;100787.22;;;29.63;100.00
54308;BME280;40208;39.778;2.710;2022-09-13T17:03:07;100772.44;;;29.57;100.00
54308;BME280;40208;39.778;2.710;2022-09-13T17:05:59;100773.00;;;29.52;100.00
54308;BME280;40208;39.778;2.710;2022-09-13T17:08:50;100768.81;;;29.56;100.00
54308;BME280;40208;39.778;2.710;2022-09-13T17:11:37;100765.06;;;29.57;100.00
54308;BME280;40208;39.778;2.710;2022-09-13T17:14:23;100771.56;;;29.56;100.00